sensor_id;sensor_type;location;lat;lon;timestamp;temperature;humidity
17405;DHT22;8820;54.604;18.226;2023-04-12T00:01:44;12.50;96.10
17405;DHT22;8820;54.604;18.226;2023-04-12T00:04:12;12.50;96.70
17405;DHT22;8820;54.604;18.226;2023-04-12T00:06:42;12.60;96.40
17405;DHT22;8820;54.604;18.226;2023-04-12T00:09:14;12.60;96.30
17405;DHT22;8820;54.604;18.226;2023-04-12T00:11:43;12.50;96.50
17405;DHT22;8820;54.604;18.226;2023-04-12T00:14:12;12.50;96.80
17405;DHT22;8820;54.604;18.226;2023-04-12T00:16:42;12.50;96.70
17405;DHT22;8820;54.604;18.226;2023-04-12T00:19:10;12.50;96.70
17405;DHT22;8820;54.604;18.226;2023-04-12T00:21:39;12.50;96.90
17405;DHT22;8820;54.604;18.226;2023-04-12T00:24:07;12.50;96.80
17405;DHT22;8820;54.604;18.226;2023-04-12T00:26:36;12.50;96.80
17405;DHT22;8820;54.604;18.226;2023-04-12T00:29:04;12.50;97.20
17405;DHT22;8820;54.604;18.226;2023-04-12T00:31:33;12.50;97.20
17405;DHT22;8820;54.604;18.226;2023-04-12T00:34:03;12.60;96.90
17405;DHT22;8820;54.604;18.226;2023-04-12T00:36:31;12.50;96.70
17405;DHT22;8820;54.604;18.226;2023-04-12T00:39:01;12.50;96.50
17405;DHT22;8820;54.604;18.226;2023-04-12T00:41:30;12.50;96.70
17405;DHT22;8820;54.604;18.226;2023-04-12T00:43:58;12.50;96.40
17405;DHT22;8820;54.604;18.226;2023-04-12T00:46:27;12.50;96.90
17405;DHT22;8820;54.604;18.226;2023-04-12T00:48:56;12.40;96.40
17405;DHT22;8820;54.604;18.226;2023-04-12T00:51:26;12.40;96.70
17405;DHT22;8820;54.604;18.226;2023-04-12T00:53:59;12.40;96.90
17405;DHT22;8820;54.604;18.226;2023-04-12T00:56:29;12.40;96.90
17405;DHT22;8820;54.604;18.226;2023-04-12T00:58:58;12.30;96.80
17405;DHT22;8820;54.604;18.226;2023-04-12T01:01:27;12.30;97.10
17405;DHT22;8820;54.604;18.226;2023-04-12T01:03:58;12.30;97.20
17405;DHT22;8820;54.604;18.226;2023-04-12T01:06:37;12.30;97.20
17405;DHT22;8820;54.604;18.226;2023-04-12T01:09:17;12.40;97.30
17405;DHT22;8820;54.604;18.226;2023-04-12T01:11:54;12.30;97.20
17405;DHT22;8820;54.604;18.226;2023-04-12T01:14:30;12.30;97.30
17405;DHT22;8820;54.604;18.226;2023-04-12T01:17:04;12.30;97.30
17405;DHT22;8820;54.604;18.226;2023-04-12T01:19:46;12.30;97.50
17405;DHT22;8820;54.604;18.226;2023-04-12T01:22:33;12.20;97.70
17405;DHT22;8820;54.604;18.226;2023-04-12T01:25:21;12.20;97.70
17405;DHT22;8820;54.604;18.226;2023-04-12T01:27:56;12.20;97.60
17405;DHT22;8820;54.604;18.226;2023-04-12T01:30:28;12.20;98.00
17405;DHT22;8820;54.604;18.226;2023-04-12T01:32:59;12.20;98.00
17405;DHT22;8820;54.604;18.226;2023-04-12T01:35:30;12.30;98.20
17405;DHT22;8820;54.604;18.226;2023-04-12T01:38:01;12.20;97.90
17405;DHT22;8820;54.604;18.226;2023-04-12T01:40:30;12.20;98.10
17405;DHT22;8820;54.604;18.226;2023-04-12T01:43:08;12.20;98.10
17405;DHT22;8820;54.604;18.226;2023-04-12T01:45:38;12.20;98.40
17405;DHT22;8820;54.604;18.226;2023-04-12T01:48:08;12.20;98.20
17405;DHT22;8820;54.604;18.226;2023-04-12T01:50:42;12.20;98.40
17405;DHT22;8820;54.604;18.226;2023-04-12T01:53:16;12.20;98.60
17405;DHT22;8820;54.604;18.226;2023-04-12T01:55:46;12.20;98.50
17405;DHT22;8820;54.604;18.226;2023-04-12T01:58:20;12.20;98.50
17405;DHT22;8820;54.604;18.226;2023-04-12T02:00:50;12.20;98.30
17405;DHT22;8820;54.604;18.226;2023-04-12T02:03:19;12.20;98.60
17405;DHT22;8820;54.604;18.226;2023-04-12T02:05:51;12.20;98.70
17405;DHT22;8820;54.604;18.226;2023-04-12T02:08:20;12.20;98.60
17405;DHT22;8820;54.604;18.226;2023-04-12T02:10:48;12.30;98.50
17405;DHT22;8820;54.604;18.226;2023-04-12T02:13:18;12.20;98.60
17405;DHT22;8820;54.604;18.226;2023-04-12T02:15:47;12.20;98.80
17405;DHT22;8820;54.604;18.226;2023-04-12T02:18:15;12.20;98.80
17405;DHT22;8820;54.604;18.226;2023-04-12T02:20:44;12.20;98.60
17405;DHT22;8820;54.604;18.226;2023-04-12T02:23:12;12.20;98.80
17405;DHT22;8820;54.604;18.226;2023-04-12T02:25:43;12.20;98.90
17405;DHT22;8820;54.604;18.226;2023-04-12T02:28:14;12.20;98.90
17405;DHT22;8820;54.604;18.226;2023-04-12T02:30:43;12.20;99.00
17405;DHT22;8820;54.604;18.226;2023-04-12T02:33:12;12.30;98.80
17405;DHT22;8820;54.604;18.226;2023-04-12T02:35:43;12.20;99.10
17405;DHT22;8820;54.604;18.226;2023-04-12T02:38:14;12.20;99.30
17405;DHT22;8820;54.604;18.226;2023-04-12T02:40:43;12.30;99.70
17405;DHT22;8820;54.604;18.226;2023-04-12T02:43:14;12.30;99.30
17405;DHT22;8820;54.604;18.226;2023-04-12T02:45:48;12.30;99.00
17405;DHT22;8820;54.604;18.226;2023-04-12T02:48:19;12.30;99.10
17405;DHT22;8820;54.604;18.226;2023-04-12T02:50:48;12.30;99.10
17405;DHT22;8820;54.604;18.226;2023-04-12T02:53:20;12.30;99.00
17405;DHT22;8820;54.604;18.226;2023-04-12T02:56:07;12.30;99.10
17405;DHT22;8820;54.604;18.226;2023-04-12T02:58:36;12.30;99.00
17405;DHT22;8820;54.604;18.226;2023-04-12T03:01:07;12.30;99.30
17405;DHT22;8820;54.604;18.226;2023-04-12T03:03:58;12.30;99.40
17405;DHT22;8820;54.604;18.226;2023-04-12T03:06:40;12.30;99.50
17405;DHT22;8820;54.604;18.226;2023-04-12T03:09:22;12.30;99.60
17405;DHT22;8820;54.604;18.226;2023-04-12T03:11:53;12.40;99.50
17405;DHT22;8820;54.604;18.226;2023-04-12T03:14:22;12.40;99.10
17405;DHT22;8820;54.604;18.226;2023-04-12T03:16:53;12.30;99.40
17405;DHT22;8820;54.604;18.226;2023-04-12T03:19:22;12.30;99.20
17405;DHT22;8820;54.604;18.226;2023-04-12T03:21:54;12.30;98.90
17405;DHT22;8820;54.604;18.226;2023-04-12T03:24:23;12.20;99.10
17405;DHT22;8820;54.604;18.226;2023-04-12T03:26:53;12.10;99.60
17405;DHT22;8820;54.604;18.226;2023-04-12T03:29:24;12.10;99.90
17405;DHT22;8820;54.604;18.226;2023-04-12T03:31:55;12.10;99.90
17405;DHT22;8820;54.604;18.226;2023-04-12T03:34:27;12.20;99.90
17405;DHT22;8820;54.604;18.226;2023-04-12T03:37:03;12.20;99.80
17405;DHT22;8820;54.604;18.226;2023-04-12T03:39:40;12.20;99.60
17405;DHT22;8820;54.604;18.226;2023-04-12T03:42:18;12.20;99.60
17405;DHT22;8820;54.604;18.226;2023-04-12T03:45:01;12.10;99.90
17405;DHT22;8820;54.604;18.226;2023-04-12T03:47:32;12.10;99.90
17405;DHT22;8820;54.604;18.226;2023-04-12T03:50:03;12.20;99.90
17405;DHT22;8820;54.604;18.226;2023-04-12T03:52:37;12.20;99.90
17405;DHT22;8820;54.604;18.226;2023-04-12T03:55:07;12.30;99.90
17405;DHT22;8820;54.604;18.226;2023-04-12T03:57:36;12.20;99.60
17405;DHT22;8820;54.604;18.226;2023-04-12T04:00:07;12.20;99.70
17405;DHT22;8820;54.604;18.226;2023-04-12T04:02:59;12.20;99.90
17405;DHT22;8820;54.604;18.226;2023-04-12T04:05:38;12.20;99.90
17405;DHT22;8820;54.604;18.226;2023-04-12T04:08:06;12.30;99.90
17405;DHT22;8820;54.604;18.226;2023-04-12T04:10:49;12.30;99.90
17405;DHT22;8820;54.604;18.226;2023-04-12T04:13:19;12.30;99.90
17405;DHT22;8820;54.604;18.226;2023-04-12T04:15:57;12.20;99.90
17405;DHT22;8820;54.604;18.226;2023-04-12T04:18:29;12.10;99.90
17405;DHT22;8820;54.604;18.226;2023-04-12T04:20:58;12.10;99.90
17405;DHT22;8820;54.604;18.226;2023-04-12T04:23:30;12.20;99.90
17405;DHT22;8820;54.604;18.226;2023-04-12T04:26:06;12.30;99.90
17405;DHT22;8820;54.604;18.226;2023-04-12T04:28:45;12.30;99.90
17405;DHT22;8820;54.604;18.226;2023-04-12T04:31:17;12.40;99.90
17405;DHT22;8820;54.604;18.226;2023-04-12T04:33:50;12.40;99.90
17405;DHT22;8820;54.604;18.226;2023-04-12T04:36:24;12.40;99.90
17405;DHT22;8820;54.604;18.226;2023-04-12T04:38:54;12.40;99.90
17405;DHT22;8820;54.604;18.226;2023-04-12T04:41:36;12.40;99.90
17405;DHT22;8820;54.604;18.226;2023-04-12T04:44:08;12.40;99.90
17405;DHT22;8820;54.604;18.226;2023-04-12T04:46:43;12.40;99.90
17405;DHT22;8820;54.604;18.226;2023-04-12T04:49:13;12.40;99.90
17405;DHT22;8820;54.604;18.226;2023-04-12T04:51:42;12.40;99.90
17405;DHT22;8820;54.604;18.226;2023-04-12T04:54:12;12.40;99.90
17405;DHT22;8820;54.604;18.226;2023-04-12T04:56:41;12.40;99.90
17405;DHT22;8820;54.604;18.226;2023-04-12T04:59:14;12.40;99.90
17405;DHT22;8820;54.604;18.226;2023-04-12T05:01:43;12.40;99.90
17405;DHT22;8820;54.604;18.226;2023-04-12T05:04:16;12.40;99.90
17405;DHT22;8820;54.604;18.226;2023-04-12T05:06:45;12.40;99.90
17405;DHT22;8820;54.604;18.226;2023-04-12T05:09:17;12.40;99.90
17405;DHT22;8820;54.604;18.226;2023-04-12T05:11:53;12.40;99.90
17405;DHT22;8820;54.604;18.226;2023-04-12T05:14:24;12.40;99.90
17405;DHT22;8820;54.604;18.226;2023-04-12T05:17:07;12.50;99.90
17405;DHT22;8820;54.604;18.226;2023-04-12T05:19:37;12.50;99.90
17405;DHT22;8820;54.604;18.226;2023-04-12T05:22:06;12.50;99.90
17405;DHT22;8820;54.604;18.226;2023-04-12T05:24:34;12.50;99.90
17405;DHT22;8820;54.604;18.226;2023-04-12T05:27:03;12.50;99.90
17405;DHT22;8820;54.604;18.226;2023-04-12T05:29:32;12.50;99.90
17405;DHT22;8820;54.604;18.226;2023-04-12T05:32:01;12.50;99.90
17405;DHT22;8820;54.604;18.226;2023-04-12T05:34:30;12.50;99.90
17405;DHT22;8820;54.604;18.226;2023-04-12T05:36:59;12.50;99.90
17405;DHT22;8820;54.604;18.226;2023-04-12T05:39:33;12.60;99.90
17405;DHT22;8820;54.604;18.226;2023-04-12T05:42:01;12.60;99.90
17405;DHT22;8820;54.604;18.226;2023-04-12T05:44:30;12.60;99.90
17405;DHT22;8820;54.604;18.226;2023-04-12T05:46:58;12.60;99.90
17405;DHT22;8820;54.604;18.226;2023-04-12T05:49:32;12.60;99.90
17405;DHT22;8820;54.604;18.226;2023-04-12T05:52:04;12.60;99.90
17405;DHT22;8820;54.604;18.226;2023-04-12T05:54:33;12.60;99.90
17405;DHT22;8820;54.604;18.226;2023-04-12T05:57:11;12.70;99.90
17405;DHT22;8820;54.604;18.226;2023-04-12T05:59:40;12.70;99.90
17405;DHT22;8820;54.604;18.226;2023-04-12T06:02:09;12.70;99.90
17405;DHT22;8820;54.604;18.226;2023-04-12T06:04:38;12.80;99.90
17405;DHT22;8820;54.604;18.226;2023-04-12T06:07:18;12.70;99.90
17405;DHT22;8820;54.604;18.226;2023-04-12T06:09:47;12.70;99.90
17405;DHT22;8820;54.604;18.226;2023-04-12T06:12:16;12.80;99.90
17405;DHT22;8820;54.604;18.226;2023-04-12T06:14:45;12.80;99.90
17405;DHT22;8820;54.604;18.226;2023-04-12T06:17:14;12.80;99.90
17405;DHT22;8820;54.604;18.226;2023-04-12T06:19:43;12.80;99.90
17405;DHT22;8820;54.604;18.226;2023-04-12T06:22:11;12.90;99.90
17405;DHT22;8820;54.604;18.226;2023-04-12T06:24:42;13.00;99.90
17405;DHT22;8820;54.604;18.226;2023-04-12T06:27:11;13.00;99.90
17405;DHT22;8820;54.604;18.226;2023-04-12T06:29:39;13.10;99.90
17405;DHT22;8820;54.604;18.226;2023-04-12T06:32:08;13.10;99.70
17405;DHT22;8820;54.604;18.226;2023-04-12T06:34:37;13.10;99.40
17405;DHT22;8820;54.604;18.226;2023-04-12T06:37:11;13.20;99.90
17405;DHT22;8820;54.604;18.226;2023-04-12T06:39:39;13.20;99.90
17405;DHT22;8820;54.604;18.226;2023-04-12T06:42:09;13.30;99.90
17405;DHT22;8820;54.604;18.226;2023-04-12T06:44:40;13.30;99.90
17405;DHT22;8820;54.604;18.226;2023-04-12T06:47:08;13.40;99.90
17405;DHT22;8820;54.604;18.226;2023-04-12T06:49:37;13.40;99.20
17405;DHT22;8820;54.604;18.226;2023-04-12T06:52:06;13.50;99.10
17405;DHT22;8820;54.604;18.226;2023-04-12T06:54:35;13.50;98.40
17405;DHT22;8820;54.604;18.226;2023-04-12T06:57:09;13.50;98.00
17405;DHT22;8820;54.604;18.226;2023-04-12T06:59:37;13.60;98.10
17405;DHT22;8820;54.604;18.226;2023-04-12T07:02:06;13.70;96.90
17405;DHT22;8820;54.604;18.226;2023-04-12T07:04:34;13.70;96.80
17405;DHT22;8820;54.604;18.226;2023-04-12T07:07:03;13.70;96.70
17405;DHT22;8820;54.604;18.226;2023-04-12T07:09:32;13.70;96.20
17405;DHT22;8820;54.604;18.226;2023-04-12T07:12:00;13.70;96.30
17405;DHT22;8820;54.604;18.226;2023-04-12T07:14:30;13.80;95.60
17405;DHT22;8820;54.604;18.226;2023-04-12T07:16:58;13.80;94.90
17405;DHT22;8820;54.604;18.226;2023-04-12T07:19:27;13.80;94.40
17405;DHT22;8820;54.604;18.226;2023-04-12T07:21:57;13.80;93.90
17405;DHT22;8820;54.604;18.226;2023-04-12T07:24:26;13.90;94.40
17405;DHT22;8820;54.604;18.226;2023-04-12T07:26:54;13.90;94.60
17405;DHT22;8820;54.604;18.226;2023-04-12T07:29:23;13.90;94.70
17405;DHT22;8820;54.604;18.226;2023-04-12T07:31:52;14.00;93.40
17405;DHT22;8820;54.604;18.226;2023-04-12T07:34:21;14.00;92.40
17405;DHT22;8820;54.604;18.226;2023-04-12T07:36:50;13.90;93.30
17405;DHT22;8820;54.604;18.226;2023-04-12T07:39:18;14.00;94.30
17405;DHT22;8820;54.604;18.226;2023-04-12T07:41:48;14.10;94.20
17405;DHT22;8820;54.604;18.226;2023-04-12T07:44:17;14.20;94.50
17405;DHT22;8820;54.604;18.226;2023-04-12T07:46:46;14.30;93.70
17405;DHT22;8820;54.604;18.226;2023-04-12T07:49:16;14.40;93.20
17405;DHT22;8820;54.604;18.226;2023-04-12T07:51:44;14.50;93.50
17405;DHT22;8820;54.604;18.226;2023-04-12T07:54:12;14.60;92.30
17405;DHT22;8820;54.604;18.226;2023-04-12T07:56:41;14.60;91.70
17405;DHT22;8820;54.604;18.226;2023-04-12T07:59:24;14.60;90.40
17405;DHT22;8820;54.604;18.226;2023-04-12T08:01:52;14.50;88.60
17405;DHT22;8820;54.604;18.226;2023-04-12T08:04:22;14.50;89.50
17405;DHT22;8820;54.604;18.226;2023-04-12T08:06:51;14.60;89.40
17405;DHT22;8820;54.604;18.226;2023-04-12T08:09:19;14.60;86.40
17405;DHT22;8820;54.604;18.226;2023-04-12T08:11:48;14.50;83.40
17405;DHT22;8820;54.604;18.226;2023-04-12T08:14:19;14.50;85.10
17405;DHT22;8820;54.604;18.226;2023-04-12T08:16:47;14.50;84.30
17405;DHT22;8820;54.604;18.226;2023-04-12T08:19:18;14.50;84.00
17405;DHT22;8820;54.604;18.226;2023-04-12T08:21:49;14.50;85.30
17405;DHT22;8820;54.604;18.226;2023-04-12T08:24:17;14.50;83.70
17405;DHT22;8820;54.604;18.226;2023-04-12T08:26:46;14.50;85.80
17405;DHT22;8820;54.604;18.226;2023-04-12T08:29:15;14.50;86.10
17405;DHT22;8820;54.604;18.226;2023-04-12T08:31:44;14.60;85.50
17405;DHT22;8820;54.604;18.226;2023-04-12T08:34:13;14.70;91.50
17405;DHT22;8820;54.604;18.226;2023-04-12T08:36:42;15.00;90.50
17405;DHT22;8820;54.604;18.226;2023-04-12T08:39:11;15.10;90.00
17405;DHT22;8820;54.604;18.226;2023-04-12T08:41:40;15.20;87.50
17405;DHT22;8820;54.604;18.226;2023-04-12T08:44:10;15.20;85.40
17405;DHT22;8820;54.604;18.226;2023-04-12T08:46:39;15.20;81.80
17405;DHT22;8820;54.604;18.226;2023-04-12T08:49:09;15.10;79.30
17405;DHT22;8820;54.604;18.226;2023-04-12T08:51:39;15.10;83.40
17405;DHT22;8820;54.604;18.226;2023-04-12T08:54:09;15.10;84.60
17405;DHT22;8820;54.604;18.226;2023-04-12T08:56:40;15.30;86.30
17405;DHT22;8820;54.604;18.226;2023-04-12T08:59:10;15.40;83.30
17405;DHT22;8820;54.604;18.226;2023-04-12T09:01:40;15.50;81.30
17405;DHT22;8820;54.604;18.226;2023-04-12T09:04:09;15.50;80.40
17405;DHT22;8820;54.604;18.226;2023-04-12T09:06:38;15.50;81.00
17405;DHT22;8820;54.604;18.226;2023-04-12T09:09:07;15.60;83.80
17405;DHT22;8820;54.604;18.226;2023-04-12T09:11:37;15.80;80.00
17405;DHT22;8820;54.604;18.226;2023-04-12T09:14:19;15.80;81.50
17405;DHT22;8820;54.604;18.226;2023-04-12T09:16:49;15.90;73.60
17405;DHT22;8820;54.604;18.226;2023-04-12T09:19:30;15.80;77.30
17405;DHT22;8820;54.604;18.226;2023-04-12T09:21:59;15.90;78.00
17405;DHT22;8820;54.604;18.226;2023-04-12T09:24:27;16.10;77.50
17405;DHT22;8820;54.604;18.226;2023-04-12T09:27:05;16.20;79.80
17405;DHT22;8820;54.604;18.226;2023-04-12T09:29:35;16.50;79.90
17405;DHT22;8820;54.604;18.226;2023-04-12T09:32:05;16.50;73.30
17405;DHT22;8820;54.604;18.226;2023-04-12T09:34:35;16.50;84.00
17405;DHT22;8820;54.604;18.226;2023-04-12T09:37:12;16.60;72.90
17405;DHT22;8820;54.604;18.226;2023-04-12T09:39:42;16.80;78.90
17405;DHT22;8820;54.604;18.226;2023-04-12T09:42:12;17.00;69.30
17405;DHT22;8820;54.604;18.226;2023-04-12T09:44:59;16.80;69.80
17405;DHT22;8820;54.604;18.226;2023-04-12T09:47:38;16.80;68.50
17405;DHT22;8820;54.604;18.226;2023-04-12T09:50:08;16.80;69.90
17405;DHT22;8820;54.604;18.226;2023-04-12T09:52:37;16.90;67.40
17405;DHT22;8820;54.604;18.226;2023-04-12T09:55:08;16.90;67.20
17405;DHT22;8820;54.604;18.226;2023-04-12T09:57:42;16.80;65.90
17405;DHT22;8820;54.604;18.226;2023-04-12T10:00:12;16.80;66.30
17405;DHT22;8820;54.604;18.226;2023-04-12T10:02:46;16.80;67.50
17405;DHT22;8820;54.604;18.226;2023-04-12T10:05:18;16.90;68.00
17405;DHT22;8820;54.604;18.226;2023-04-12T10:07:48;17.00;67.60
17405;DHT22;8820;54.604;18.226;2023-04-12T10:10:18;17.20;70.90
17405;DHT22;8820;54.604;18.226;2023-04-12T10:12:48;17.60;77.60
17405;DHT22;8820;54.604;18.226;2023-04-12T10:15:17;17.70;66.20
17405;DHT22;8820;54.604;18.226;2023-04-12T10:17:54;17.60;65.50
17405;DHT22;8820;54.604;18.226;2023-04-12T10:20:23;17.50;63.60
17405;DHT22;8820;54.604;18.226;2023-04-12T10:22:55;17.50;62.90
17405;DHT22;8820;54.604;18.226;2023-04-12T10:25:27;17.40;62.30
17405;DHT22;8820;54.604;18.226;2023-04-12T10:28:12;17.30;62.40
17405;DHT22;8820;54.604;18.226;2023-04-12T10:30:41;17.30;63.90
17405;DHT22;8820;54.604;18.226;2023-04-12T10:33:11;17.60;75.80
17405;DHT22;8820;54.604;18.226;2023-04-12T10:35:52;18.20;73.00
17405;DHT22;8820;54.604;18.226;2023-04-12T10:38:21;18.60;63.30
17405;DHT22;8820;54.604;18.226;2023-04-12T10:41:12;18.30;58.00
17405;DHT22;8820;54.604;18.226;2023-04-12T10:43:43;17.40;59.70
17405;DHT22;8820;54.604;18.226;2023-04-12T10:46:46;17.50;66.50
17405;DHT22;8820;54.604;18.226;2023-04-12T10:49:15;17.70;61.00
17405;DHT22;8820;54.604;18.226;2023-04-12T10:52:09;17.90;62.50
17405;DHT22;8820;54.604;18.226;2023-04-12T10:54:38;18.10;64.00
17405;DHT22;8820;54.604;18.226;2023-04-12T10:57:40;18.70;72.80
17405;DHT22;8820;54.604;18.226;2023-04-12T11:00:12;19.10;67.50
17405;DHT22;8820;54.604;18.226;2023-04-12T11:03:02;19.80;62.80
17405;DHT22;8820;54.604;18.226;2023-04-12T11:05:56;20.30;59.40
17405;DHT22;8820;54.604;18.226;2023-04-12T11:08:49;20.40;55.30
17405;DHT22;8820;54.604;18.226;2023-04-12T11:11:24;20.30;57.20
17405;DHT22;8820;54.604;18.226;2023-04-12T11:13:54;19.60;53.10
17405;DHT22;8820;54.604;18.226;2023-04-12T11:16:26;19.20;54.30
17405;DHT22;8820;54.604;18.226;2023-04-12T11:18:55;19.10;55.00
17405;DHT22;8820;54.604;18.226;2023-04-12T11:21:24;19.00;54.40
17405;DHT22;8820;54.604;18.226;2023-04-12T11:23:53;19.10;55.00
17405;DHT22;8820;54.604;18.226;2023-04-12T11:26:22;19.20;55.00
17405;DHT22;8820;54.604;18.226;2023-04-12T11:28:51;19.30;54.50
17405;DHT22;8820;54.604;18.226;2023-04-12T11:31:22;19.40;55.70
17405;DHT22;8820;54.604;18.226;2023-04-12T11:33:52;19.50;55.00
17405;DHT22;8820;54.604;18.226;2023-04-12T11:36:20;19.60;53.80
17405;DHT22;8820;54.604;18.226;2023-04-12T11:38:49;19.40;53.60
17405;DHT22;8820;54.604;18.226;2023-04-12T11:41:18;19.40;53.90
17405;DHT22;8820;54.604;18.226;2023-04-12T11:43:47;19.30;53.80
17405;DHT22;8820;54.604;18.226;2023-04-12T11:46:16;19.30;53.60
17405;DHT22;8820;54.604;18.226;2023-04-12T11:48:44;19.30;53.70
17405;DHT22;8820;54.604;18.226;2023-04-12T11:51:21;19.10;53.40
17405;DHT22;8820;54.604;18.226;2023-04-12T11:53:54;19.00;53.70
17405;DHT22;8820;54.604;18.226;2023-04-12T11:56:24;18.90;53.60
17405;DHT22;8820;54.604;18.226;2023-04-12T11:58:53;18.60;54.80
17405;DHT22;8820;54.604;18.226;2023-04-12T12:01:22;18.40;54.90
17405;DHT22;8820;54.604;18.226;2023-04-12T12:03:50;18.40;55.20
17405;DHT22;8820;54.604;18.226;2023-04-12T12:06:21;18.40;55.10
17405;DHT22;8820;54.604;18.226;2023-04-12T12:08:51;18.30;55.10
17405;DHT22;8820;54.604;18.226;2023-04-12T12:11:20;18.20;55.30
17405;DHT22;8820;54.604;18.226;2023-04-12T12:13:50;18.10;55.80
17405;DHT22;8820;54.604;18.226;2023-04-12T12:16:23;18.10;56.20
17405;DHT22;8820;54.604;18.226;2023-04-12T12:18:52;18.20;56.50
17405;DHT22;8820;54.604;18.226;2023-04-12T12:21:23;18.50;60.10
17405;DHT22;8820;54.604;18.226;2023-04-12T12:23:52;19.00;59.70
17405;DHT22;8820;54.604;18.226;2023-04-12T12:26:23;19.30;58.30
17405;DHT22;8820;54.604;18.226;2023-04-12T12:28:54;19.40;56.30
17405;DHT22;8820;54.604;18.226;2023-04-12T12:31:24;19.10;55.60
17405;DHT22;8820;54.604;18.226;2023-04-12T12:33:54;19.00;55.30
17405;DHT22;8820;54.604;18.226;2023-04-12T12:36:32;19.10;56.20
17405;DHT22;8820;54.604;18.226;2023-04-12T12:39:04;19.40;58.80
17405;DHT22;8820;54.604;18.226;2023-04-12T12:41:34;19.80;57.00
17405;DHT22;8820;54.604;18.226;2023-04-12T12:44:03;20.00;56.80
17405;DHT22;8820;54.604;18.226;2023-04-12T12:46:31;20.00;53.30
17405;DHT22;8820;54.604;18.226;2023-04-12T12:49:03;19.40;53.50
17405;DHT22;8820;54.604;18.226;2023-04-12T12:51:33;19.20;54.20
17405;DHT22;8820;54.604;18.226;2023-04-12T12:54:01;19.10;53.60
17405;DHT22;8820;54.604;18.226;2023-04-12T12:56:30;19.10;54.60
17405;DHT22;8820;54.604;18.226;2023-04-12T12:58:59;19.10;54.40
17405;DHT22;8820;54.604;18.226;2023-04-12T13:01:27;18.90;54.40
17405;DHT22;8820;54.604;18.226;2023-04-12T13:03:56;18.90;54.80
17405;DHT22;8820;54.604;18.226;2023-04-12T13:06:25;18.70;54.30
17405;DHT22;8820;54.604;18.226;2023-04-12T13:08:55;18.60;54.80
17405;DHT22;8820;54.604;18.226;2023-04-12T13:11:24;18.60;54.90
17405;DHT22;8820;54.604;18.226;2023-04-12T13:13:53;18.50;55.20
17405;DHT22;8820;54.604;18.226;2023-04-12T13:16:21;18.10;55.40
17405;DHT22;8820;54.604;18.226;2023-04-12T13:18:52;17.70;56.60
17405;DHT22;8820;54.604;18.226;2023-04-12T13:21:21;17.70;57.00
17405;DHT22;8820;54.604;18.226;2023-04-12T13:23:49;17.90;57.40
17405;DHT22;8820;54.604;18.226;2023-04-12T13:26:19;18.10;57.50
17405;DHT22;8820;54.604;18.226;2023-04-12T13:28:50;18.30;57.60
17405;DHT22;8820;54.604;18.226;2023-04-12T13:31:19;18.30;57.00
17405;DHT22;8820;54.604;18.226;2023-04-12T13:33:47;17.70;56.30
17405;DHT22;8820;54.604;18.226;2023-04-12T13:36:16;17.30;57.00
17405;DHT22;8820;54.604;18.226;2023-04-12T13:38:44;17.20;57.40
17405;DHT22;8820;54.604;18.226;2023-04-12T13:41:13;17.20;57.00
17405;DHT22;8820;54.604;18.226;2023-04-12T13:43:43;17.10;56.80
17405;DHT22;8820;54.604;18.226;2023-04-12T13:46:11;17.20;57.20
17405;DHT22;8820;54.604;18.226;2023-04-12T13:48:40;17.20;57.40
17405;DHT22;8820;54.604;18.226;2023-04-12T13:51:09;17.30;57.40
17405;DHT22;8820;54.604;18.226;2023-04-12T13:53:37;17.50;58.20
17405;DHT22;8820;54.604;18.226;2023-04-12T13:56:06;17.70;56.40
17405;DHT22;8820;54.604;18.226;2023-04-12T13:58:35;17.60;57.10
17405;DHT22;8820;54.604;18.226;2023-04-12T14:01:07;17.70;56.70
17405;DHT22;8820;54.604;18.226;2023-04-12T14:03:36;17.80;56.80
17405;DHT22;8820;54.604;18.226;2023-04-12T14:06:05;17.70;56.70
17405;DHT22;8820;54.604;18.226;2023-04-12T14:08:34;17.70;56.80
17405;DHT22;8820;54.604;18.226;2023-04-12T14:11:02;17.70;57.40
17405;DHT22;8820;54.604;18.226;2023-04-12T14:13:31;17.60;56.40
17405;DHT22;8820;54.604;18.226;2023-04-12T14:15:59;17.40;55.80
17405;DHT22;8820;54.604;18.226;2023-04-12T14:18:29;17.10;56.70
17405;DHT22;8820;54.604;18.226;2023-04-12T14:20:58;17.30;57.00
17405;DHT22;8820;54.604;18.226;2023-04-12T14:23:26;17.40;57.10
17405;DHT22;8820;54.604;18.226;2023-04-12T14:25:56;17.30;55.20
17405;DHT22;8820;54.604;18.226;2023-04-12T14:28:25;17.20;56.20
17405;DHT22;8820;54.604;18.226;2023-04-12T14:30:57;17.40;55.70
17405;DHT22;8820;54.604;18.226;2023-04-12T14:33:31;17.40;55.40
17405;DHT22;8820;54.604;18.226;2023-04-12T14:35:59;17.10;55.10
17405;DHT22;8820;54.604;18.226;2023-04-12T14:38:31;17.00;55.30
17405;DHT22;8820;54.604;18.226;2023-04-12T14:40:59;16.80;55.70
17405;DHT22;8820;54.604;18.226;2023-04-12T14:43:28;16.80;56.50
17405;DHT22;8820;54.604;18.226;2023-04-12T14:45:56;16.90;56.00
17405;DHT22;8820;54.604;18.226;2023-04-12T14:48:25;17.00;55.90
17405;DHT22;8820;54.604;18.226;2023-04-12T14:50:55;17.20;55.90
17405;DHT22;8820;54.604;18.226;2023-04-12T14:53:23;17.20;55.20
17405;DHT22;8820;54.604;18.226;2023-04-12T14:55:52;16.90;55.30
17405;DHT22;8820;54.604;18.226;2023-04-12T14:58:22;17.00;55.90
17405;DHT22;8820;54.604;18.226;2023-04-12T15:00:55;17.20;55.70
17405;DHT22;8820;54.604;18.226;2023-04-12T15:03:26;17.40;55.60
17405;DHT22;8820;54.604;18.226;2023-04-12T15:06:00;17.40;55.10
17405;DHT22;8820;54.604;18.226;2023-04-12T15:08:29;17.40;54.60
17405;DHT22;8820;54.604;18.226;2023-04-12T15:10:57;17.30;55.50
17405;DHT22;8820;54.604;18.226;2023-04-12T15:13:26;17.40;55.40
17405;DHT22;8820;54.604;18.226;2023-04-12T15:15:59;17.50;54.30
17405;DHT22;8820;54.604;18.226;2023-04-12T15:18:28;17.40;54.20
17405;DHT22;8820;54.604;18.226;2023-04-12T15:20:56;17.20;54.20
17405;DHT22;8820;54.604;18.226;2023-04-12T15:23:27;17.00;54.40
17405;DHT22;8820;54.604;18.226;2023-04-12T15:25:58;16.90;54.70
17405;DHT22;8820;54.604;18.226;2023-04-12T15:28:29;16.90;54.70
17405;DHT22;8820;54.604;18.226;2023-04-12T15:30:58;16.80;54.90
17405;DHT22;8820;54.604;18.226;2023-04-12T15:33:28;16.80;55.50
17405;DHT22;8820;54.604;18.226;2023-04-12T15:36:00;16.40;56.10
17405;DHT22;8820;54.604;18.226;2023-04-12T15:38:31;16.30;56.70
17405;DHT22;8820;54.604;18.226;2023-04-12T15:41:00;16.40;57.00
17405;DHT22;8820;54.604;18.226;2023-04-12T15:43:28;16.50;57.00
17405;DHT22;8820;54.604;18.226;2023-04-12T15:45:57;16.60;57.30
17405;DHT22;8820;54.604;18.226;2023-04-12T15:48:27;16.60;57.50
17405;DHT22;8820;54.604;18.226;2023-04-12T15:50:56;16.70;57.60
17405;DHT22;8820;54.604;18.226;2023-04-12T15:53:25;16.70;58.10
17405;DHT22;8820;54.604;18.226;2023-04-12T15:55:55;16.60;58.40